Time;durP1;ratioP1;P1;durP2;ratioP2;P2;SDS_P1;SDS_P2;PMS_P1;PMS_P2;Temp;Humidity;BMP_temperature;BMP_pressure;BME280_temperature;BME280_humidity;BME280_pressure;Samples;Min_cycle;Max_cycle;Signal;HPM_P1;HPM_P2
2022/02/03 00:01:12;;;;;;;13.53;6.53;;;;;;;-145.69;100.00;72783.59;5072922;28;20230;-74
2022/02/03 00:03:49;;;;;;;15.30;6.93;;;;;;;-145.69;100.00;72789.56;5072910;28;20207;-74
2022/02/03 00:06:22;;;;;;;13.27;6.30;;;;;;;-145.69;100.00;72779.63;5073176;28;20557;-74
2022/02/03 00:09:06;;;;;;;13.70;6.33;;;;;;;-145.69;100.00;72789.56;5072980;28;20202;-74
2022/02/03 00:16:04;;;;;;;12.43;6.27;;;;;;;-145.69;100.00;72781.59;5072935;28;20199;-75
2022/02/03 00:22:04;;;;;;;19.50;6.03;;;;;;;-145.69;100.00;72777.63;5052796;28;20234;-75
2022/02/03 00:22:52;;;;;;;16.10;6.90;;;;;;;-145.69;100.00;72779.63;5061728;28;20209;-75
2022/02/03 00:25:26;;;;;;;12.83;6.37;;;;;;;-145.69;100.00;72787.56;5072695;28;20225;-75
2022/02/03 00:28:00;;;;;;;16.47;6.70;;;;;;;-145.69;100.00;72795.53;5072734;28;20256;-75
2022/02/03 00:30:35;;;;;;;11.20;5.67;;;;;;;-145.69;100.00;72787.56;5072916;28;20268;-75
2022/02/03 00:33:16;;;;;;;13.27;6.83;;;;;;;-145.69;100.00;72787.56;5074864;28;20627;-75
2022/02/03 00:35:58;;;;;;;14.70;6.40;;;;;;;-145.69;100.00;72791.56;5036810;28;20204;-75
2022/02/03 00:48:12;;;;;;;14.97;6.53;;;;;;;-145.69;100.00;72795.53;5038996;28;20228;-75
2022/02/03 00:49:50;;;;;;;14.20;6.93;;;;;;;-145.69;100.00;72803.50;5036584;28;20202;-75
2022/02/03 00:52:17;;;;;;;14.27;6.07;;;;;;;-145.69;100.00;72803.50;5036576;28;20257;-75
2022/02/03 00:54:44;;;;;;;10.60;5.57;;;;;;;-145.69;100.00;72795.53;5064642;28;20260;-76
2022/02/03 00:57:16;;;;;;;10.00;5.33;;;;;;;-145.69;100.00;72795.53;5076215;28;20681;-75
2022/02/03 00:59:53;;;;;;;10.20;5.57;;;;;;;-145.69;100.00;72783.59;5076560;28;20236;-75
2022/02/03 01:02:23;;;;;;;10.50;5.20;;;;;;;-145.69;100.00;72783.59;5076473;28;20282;-75
2022/02/03 01:04:53;;;;;;;7.70;4.77;;;;;;;-145.69;100.00;72785.59;5076334;28;20207;-76
2022/02/03 01:07:21;;;;;;;9.03;5.00;;;;;;;-145.69;100.00;72787.56;5076072;28;20672;-76
2022/02/03 01:09:58;;;;;;;10.83;5.40;;;;;;;-145.69;100.00;72789.56;5076025;28;20233;-76
2022/02/03 01:12:33;;;;;;;11.33;5.90;;;;;;;-145.69;100.00;72797.53;5076308;28;20206;-75
2022/02/03 01:15:13;;;;;;;13.00;6.40;;;;;;;-145.69;100.00;72811.47;5058283;28;20254;-75
2022/02/03 01:17:49;;;;;;;14.10;6.00;;;;;;;-145.69;100.00;72811.47;5056192;28;20195;-76
2022/02/03 01:20:47;;;;;;;10.77;5.87;;;;;;;-145.69;100.00;72815.44;5055758;28;20200;-75
2022/02/03 01:34:34;;;;;;;9.70;5.00;;;;;;;-145.69;100.00;72797.53;5062768;28;20200;-75
2022/02/03 01:45:27;;;;;;;11.13;5.80;;;;;;;-145.69;100.00;72807.47;5074669;28;20202;-75
2022/02/03 01:48:17;;;;;;;12.10;5.37;;;;;;;-145.69;100.00;72811.47;5075607;28;20206;-75
2022/02/03 01:53:33;;;;;;;9.90;5.07;;;;;;;-145.69;100.00;72819.44;5074352;28;20279;-75
2022/02/03 01:56:04;;;;;;;11.63;6.05;;;;;;;-145.69;100.00;72817.44;5055113;28;20447;-75
2022/02/03 01:58:38;;;;;;;12.10;5.43;;;;;;;-145.69;100.00;72819.44;5055072;28;20673;-76
2022/02/03 02:01:06;;;;;;;9.27;4.70;;;;;;;-145.69;100.00;72811.47;5055301;28;20258;-76
2022/02/03 02:03:40;;;;;;;8.10;4.43;;;;;;;-145.69;100.00;72819.44;5054743;28;20208;-75
2022/02/03 02:06:36;;;;;;;12.70;5.00;;;;;;;-145.69;100.00;72823.41;5054986;28;20203;-75
2022/02/03 02:09:08;;;;;;;8.47;4.37;;;;;;;-145.69;100.00;72823.41;5055190;28;20208;-75
2022/02/03 02:11:45;;;;;;;9.30;4.57;;;;;;;-145.69;100.00;72823.41;5055054;28;20200;-75
2022/02/03 02:14:47;;;;;;;6.83;4.00;;;;;;;-145.69;100.00;72825.41;5063162;28;20210;-75
2022/02/03 02:17:48;;;;;;;7.87;3.93;;;;;;;-145.69;100.00;72815.44;5074688;28;20222;-76
2022/02/03 02:37:15;;;;;;;10.60;4.37;;;;;;;-145.69;100.00;72825.41;5074486;28;20700;-76
2022/02/03 02:40:07;;;;;;;7.77;4.00;;;;;;;-145.69;100.00;72823.41;5072444;28;20666;-76
2022/02/03 02:42:50;;;;;;;6.97;3.53;;;;;;;-145.69;100.00;72819.44;5074314;28;20692;-76
2022/02/03 02:45:25;;;;;;;6.17;3.43;;;;;;;-145.69;100.00;72815.44;5074305;28;20199;-76
2022/02/03 02:48:11;;;;;;;6.27;3.23;;;;;;;-145.69;100.00;72817.44;5074340;28;20209;-75
2022/02/03 02:50:46;;;;;;;5.83;3.27;;;;;;;-145.69;100.00;72815.44;5074474;28;20198;-75
2022/02/03 02:53:27;;;;;;;6.10;3.13;;;;;;;-145.69;100.00;72805.50;5056194;28;20210;-75
2022/02/03 02:56:16;;;;;;;9.37;2.90;;;;;;;-145.69;100.00;72805.50;5053301;28;20203;-75
2022/02/03 02:59:03;;;;;;;9.17;4.13;;;;;;;-145.69;100.00;72811.47;5053963;28;20204;-75
2022/02/03 03:29:56;;;;;;;6.07;2.80;;;;;;;-145.69;100.00;72763.69;5073497;28;20190;-75
2022/02/03 03:32:41;;;;;;;4.93;2.63;;;;;;;-145.69;100.00;72759.72;5061891;28;20411;-75
2022/02/03 03:35:26;;;;;;;4.93;2.87;;;;;;;-145.69;100.00;72779.63;5053557;28;20226;-76
2022/02/03 03:37:58;;;;;;;5.60;2.20;;;;;;;-145.69;100.00;72769.66;5052996;28;20203;-75
2022/02/03 03:40:28;;;;;;;4.20;2.40;;;;;;;-145.69;100.00;72775.63;5053487;28;20221;-75
2022/02/03 03:43:02;;;;;;;5.17;2.40;;;;;;;-145.69;100.00;72763.69;5053252;28;20300;-75
2022/02/03 03:45:31;;;;;;;4.57;2.20;;;;;;;-145.69;100.00;72779.63;5053335;28;20225;-75
2022/02/03 03:48:01;;;;;;;4.27;2.50;;;;;;;-145.69;100.00;72779.63;5053195;28;20210;-75
2022/02/03 03:50:30;;;;;;;3.83;1.93;;;;;;;-145.69;100.00;72779.63;5053136;28;20203;-75
2022/02/03 03:53:05;;;;;;;4.77;2.33;;;;;;;-145.69;100.00;72779.63;5069540;28;20198;-75
2022/02/03 03:55:43;;;;;;;4.07;2.00;;;;;;;-145.69;100.00;72775.63;5073131;28;20233;-75
2022/02/03 03:58:33;;;;;;;2.50;1.60;;;;;;;-145.69;100.00;72773.66;5073001;28;20198;-75
2022/02/03 04:28:53;;;;;;;2.37;1.60;;;;;;;-145.69;100.00;72777.63;5072981;28;20265;-75
2022/02/03 04:30:45;;;;;;;3.17;1.73;;;;;;;-145.69;100.00;72825.41;5052700;28;20233;-75
2022/02/03 04:33:43;;;;;;;2.90;1.60;;;;;;;-145.69;100.00;72819.44;5067307;28;20190;-75
2022/02/03 04:37:06;;;;;;;2.97;1.60;;;;;;;-145.69;100.00;72827.38;5032764;28;20205;-75
2022/02/03 04:42:57;;;;;;;2.90;1.47;;;;;;;-145.69;100.00;72823.41;5031344;28;20259;-75
2022/02/03 04:46:03;;;;;;;3.93;1.93;;;;;;;-145.69;100.00;72809.47;5032414;28;20200;-76
2022/02/03 05:00:44;;;;;;;2.97;1.63;;;;;;;-145.69;100.00;72797.53;5034795;28;20202;-76
2022/02/03 05:03:52;;;;;;;4.07;1.43;;;;;;;-145.69;100.00;72799.53;5052251;28;20261;-76
2022/02/03 05:06:43;;;;;;;3.63;1.60;;;;;;;-145.69;100.00;72791.56;5052476;28;20199;-75
2022/02/03 05:09:39;;;;;;;2.33;1.60;;;;;;;-145.69;100.00;72783.59;5052124;28;20215;-76
2022/02/03 05:12:27;;;;;;;2.80;1.70;;;;;;;-145.69;100.00;72769.66;5032674;28;20306;-76
2022/02/03 05:15:25;;;;;;;3.90;1.67;;;;;;;-145.69;100.00;72767.69;5032601;28;20208;-75
2022/02/03 05:18:30;;;;;;;3.67;1.50;;;;;;;-145.69;100.00;72763.69;5032329;28;20207;-75
2022/02/03 05:21:48;;;;;;;4.63;1.33;;;;;;;-145.69;100.00;72775.63;5035634;28;20238;-76
2022/02/03 05:24:58;;;;;;;3.57;2.00;;;;;;;-145.69;100.00;72783.59;5036072;28;20204;-76
2022/02/03 05:42:25;;;;;;;6.30;2.10;;;;;;;-145.69;100.00;72773.66;5055598;28;20732;-75
2022/02/03 05:51:12;;;;;;;6.43;2.20;;;;;;;-145.69;100.00;72739.81;5051711;28;20196;-75
2022/02/03 06:02:17;;;;;;;4.53;2.07;;;;;;;-145.69;100.00;72783.59;5075229;28;20229;-75
2022/02/03 06:04:56;;;;;;;2.73;1.63;;;;;;;-145.69;100.00;72775.63;5075079;28;20260;-75
2022/02/03 06:13:09;;;;;;;6.00;2.80;;;;;;;-145.69;100.00;72747.78;5074380;28;20962;-75
2022/02/03 06:15:44;;;;;;;5.00;1.80;;;;;;;-145.69;100.00;72731.84;5074878;28;20237;-75
2022/02/03 06:24:00;;;;;;;7.20;2.37;;;;;;;-145.69;100.00;72717.91;5090450;27;20543;-76
2022/02/03 06:29:20;;;;;;;2.87;1.33;;;;;;;-145.69;100.00;72711.94;5077622;28;20557;-76
2022/02/03 06:31:48;;;;;;;1.07;0.97;;;;;;;-145.69;100.00;72703.97;5070127;28;20628;-76
2022/02/03 06:34:15;;;;;;;2.03;1.47;;;;;;;-145.69;100.00;72705.97;5070142;28;20233;-77
2022/02/03 06:36:42;;;;;;;2.77;1.20;;;;;;;-145.69;100.00;72707.97;5075359;28;20217;-76
2022/02/03 06:39:18;;;;;;;1.57;1.20;;;;;;;-145.69;100.00;72703.97;5090090;28;20607;-77
2022/02/03 06:41:49;;;;;;;1.20;1.00;;;;;;;-145.69;100.00;72700.00;5090268;28;20208;-77
2022/02/03 06:44:17;;;;;;;1.40;0.93;;;;;;;-145.69;100.00;72703.97;5089998;28;20688;-76
2022/02/03 06:46:50;;;;;;;0.80;0.80;;;;;;;-145.69;100.00;72703.97;5089967;28;20284;-77
2022/02/03 06:49:22;;;;;;;1.83;0.87;;;;;;;-145.69;100.00;72707.97;5090009;28;20569;-76
2022/02/03 06:51:56;;;;;;;1.10;0.90;;;;;;;-145.69;100.00;72703.97;5090099;28;20194;-76
2022/02/03 06:54:32;;;;;;;1.43;0.90;;;;;;;-145.69;100.00;72703.97;5089963;28;20213;-76
2022/02/03 06:57:03;;;;;;;1.60;0.90;;;;;;;-145.69;100.00;72700.00;5089771;28;20285;-76
2022/02/03 06:59:42;;;;;;;0.90;0.80;;;;;;;-145.69;100.00;72686.06;5089867;28;20198;-76
2022/02/03 07:02:09;;;;;;;1.10;0.87;;;;;;;-145.69;100.00;72690.03;5089561;28;20226;-76
2022/02/03 07:04:41;;;;;;;1.70;0.90;;;;;;;-145.69;100.00;72684.06;5089495;28;20661;-76
2022/02/03 07:07:08;;;;;;;1.07;0.90;;;;;;;-145.69;100.00;72682.09;5089652;28;20211;-76
2022/02/03 07:09:45;;;;;;;1.07;0.80;;;;;;;-145.69;100.00;72678.09;5089474;28;20206;-76
2022/02/03 07:12:12;;;;;;;1.60;0.80;;;;;;;-145.69;100.00;72678.09;5089467;28;20560;-76
2022/02/03 07:14:40;;;;;;;4.07;0.70;;;;;;;-145.69;100.00;72676.09;5089668;28;20209;-77
2022/02/03 07:17:08;;;;;;;0.73;0.70;;;;;;;-145.69;100.00;72670.13;5089237;28;20191;-76
2022/02/03 07:19:46;;;;;;;1.40;0.90;;;;;;;-145.69;100.00;72668.16;5089498;28;20213;-77
2022/02/03 07:22:13;;;;;;;1.43;0.80;;;;;;;-145.69;100.00;72676.09;5089192;28;20236;-77
2022/02/03 07:24:45;;;;;;;0.67;0.67;;;;;;;-145.69;100.00;72688.06;5089373;28;20198;-77
2022/02/03 07:27:11;;;;;;;0.90;0.73;;;;;;;-145.69;100.00;72694.03;5089483;28;20194;-76
2022/02/03 07:29:40;;;;;;;1.07;1.00;;;;;;;-145.69;100.00;72690.03;5089367;28;20198;-76
2022/02/03 07:32:10;;;;;;;0.80;0.80;;;;;;;-145.69;100.00;72719.91;5089279;28;20210;-76
2022/02/03 07:34:38;;;;;;;1.17;0.90;;;;;;;-145.69;100.00;72727.88;5078662;28;20294;-77
2022/02/03 07:37:05;;;;;;;1.10;0.77;;;;;;;-145.69;100.00;72735.81;5075156;28;20195;-77
2022/02/03 07:39:34;;;;;;;1.47;1.00;;;;;;;-145.69;100.00;72715.91;5075496;28;20205;-77
2022/02/03 07:42:06;;;;;;;2.23;0.87;;;;;;;-145.69;100.00;72700.00;5075532;28;20209;-76
2022/02/03 07:44:33;;;;;;;1.13;1.00;;;;;;;-145.69;100.00;72700.00;5075673;28;20199;-77
2022/02/03 07:47:02;;;;;;;1.47;1.10;;;;;;;-145.69;100.00;72694.03;5075420;28;20195;-77
2022/02/03 07:49:30;;;;;;;1.83;1.37;;;;;;;-145.69;100.00;72703.97;5075384;28;20214;-76
2022/02/03 07:51:56;;;;;;;2.83;1.70;;;;;;;-145.69;100.00;72705.97;5075245;28;20578;-77
2022/02/03 07:54:23;;;;;;;2.10;1.60;;;;;;;-145.69;100.00;72707.97;5075130;28;20290;-77
2022/02/03 07:56:49;;;;;;;1.93;1.40;;;;;;;-145.69;100.00;72711.94;5075130;28;20195;-76
2022/02/03 07:59:17;;;;;;;2.10;1.50;;;;;;;-145.69;100.00;72715.91;5075368;28;20206;-77
2022/02/03 08:01:44;;;;;;;2.17;1.60;;;;;;;-145.69;100.00;72715.91;5075189;28;20198;-76
2022/02/03 08:04:10;;;;;;;1.63;1.13;;;;;;;-145.69;100.00;72703.97;5075030;28;20230;-77
2022/02/03 08:06:42;;;;;;;1.90;1.47;;;;;;;-145.69;100.00;72684.06;5074779;28;20206;-74
2022/02/03 08:09:10;;;;;;;2.83;1.63;;;;;;;-145.69;100.00;72674.13;5075135;28;20203;-76
2022/02/03 08:11:41;;;;;;;3.03;1.83;;;;;;;-145.69;100.00;72660.19;5074836;28;20199;-75
2022/02/03 08:14:11;;;;;;;2.30;1.50;;;;;;;-145.69;100.00;72648.25;5075003;28;20230;-77
2022/02/03 08:16:44;;;;;;;1.97;1.50;;;;;;;-145.69;100.00;72642.28;5074439;28;20217;-76
2022/02/03 08:19:16;;;;;;;2.37;1.40;;;;;;;-145.69;100.00;72622.38;5074553;28;20606;-76
2022/02/03 08:21:47;;;;;;;1.30;1.17;;;;;;;-145.69;100.00;72600.47;5074740;28;20199;-76
2022/02/03 08:24:21;;;;;;;1.90;1.40;;;;;;;-145.69;100.00;72600.47;5074685;28;20237;-77
2022/02/03 08:27:04;;;;;;;1.80;1.50;;;;;;;-145.69;100.00;72588.53;5074730;28;20195;-77
2022/02/03 08:30:05;;;;;;;1.83;1.47;;;;;;;-145.69;100.00;72568.63;5074613;28;20333;-76
2022/02/03 08:32:35;;;;;;;2.00;1.10;;;;;;;-145.69;100.00;72554.69;5074502;28;20715;-77
2022/02/03 08:35:20;;;;;;;2.73;1.50;;;;;;;-145.69;100.00;72554.69;5066074;28;20203;-77
2022/02/03 08:37:59;;;;;;;3.67;1.77;;;;;;;-145.69;100.00;72554.69;5065466;28;20194;-77
2022/02/03 08:40:29;;;;;;;2.23;1.43;;;;;;;-145.69;100.00;72562.66;5074572;28;20202;-77
2022/02/03 08:42:56;;;;;;;2.53;1.60;;;;;;;-145.69;100.00;72528.81;5074374;28;20690;-77
2022/02/03 08:45:23;;;;;;;2.77;1.60;;;;;;;-145.69;100.00;72510.91;5073374;28;20217;-77
2022/02/03 08:47:51;;;;;;;2.10;1.40;;;;;;;-145.69;100.00;72506.91;5074427;28;20313;-77
2022/02/03 08:50:18;;;;;;;2.63;1.80;;;;;;;-145.69;100.00;72528.81;5074095;28;20205;-77
2022/02/03 08:52:53;;;;;;;3.53;1.70;;;;;;;-145.69;100.00;72520.84;5074094;28;20655;-76
2022/02/03 08:55:27;;;;;;;2.00;1.50;;;;;;;-145.69;100.00;72522.84;5073914;28;20190;-77
2022/02/03 09:28:02;;;;;;;1.63;1.23;;;;;;;-145.69;100.00;72493.00;5069840;28;20618;-77
2022/02/03 09:29:22;;;;;;;2.50;1.40;;;;;;;-145.69;100.00;72391.47;5073734;28;20276;-77
2022/02/03 09:34:47;;;;;;;14.07;6.20;;;;;;;-145.69;100.00;72363.63;5073176;28;20549;-78
2022/02/03 09:54:27;;;;;;;4.40;2.30;;;;;;;-145.69;100.00;72333.75;5073093;28;20236;-76
2022/02/03 09:57:12;;;;;;;2.17;1.77;;;;;;;-145.69;100.00;72345.69;5072461;28;20199;-77
2022/02/03 09:59:48;;;;;;;2.20;1.50;;;;;;;-145.69;100.00;72327.78;5073122;28;20230;-78
2022/02/03 10:02:20;;;;;;;3.60;2.17;;;;;;;-145.69;100.00;72307.88;5073089;28;20198;-77
2022/02/03 10:04:49;;;;;;;2.33;1.60;;;;;;;-145.69;100.00;72280.03;5073074;28;20248;-77
2022/02/03 10:07:21;;;;;;;3.63;2.07;;;;;;;-145.69;100.00;72250.16;5072760;28;20206;-77
2022/02/03 10:09:53;;;;;;;5.20;2.60;;;;;;;-145.69;100.00;72210.38;5072869;28;20206;-77
2022/02/03 10:12:30;;;;;;;4.83;2.63;;;;;;;-145.69;100.00;72210.38;5072893;28;20198;-77
2022/02/03 10:14:59;;;;;;;4.20;2.27;;;;;;;-145.69;100.00;72182.50;5072478;28;20202;-77
2022/02/03 10:17:32;;;;;;;2.27;1.53;;;;;;;-145.69;100.00;72170.56;5072468;28;20709;-77
2022/02/03 10:20:00;;;;;;;1.23;1.03;;;;;;;-145.69;100.00;72162.59;5072918;28;20202;-77
2022/02/03 10:22:27;;;;;;;1.10;1.00;;;;;;;-145.69;99.30;72114.81;5072622;28;20571;-77
2022/02/03 10:25:10;;;;;;;1.40;1.07;;;;;;;-145.69;100.00;72092.94;5072654;28;20202;-77
2022/02/03 10:27:45;;;;;;;1.83;1.30;;;;;;;-145.69;100.00;72088.97;5071449;28;20999;-77
2022/02/03 10:30:23;;;;;;;2.67;1.00;;;;;;;-145.69;100.00;72088.97;5069344;28;20218;-77
2022/02/03 10:32:58;;;;;;;1.13;1.03;;;;;;;-145.69;100.00;72079.00;5051183;28;20207;-77
2022/02/03 10:35:32;;;;;;;1.40;0.90;;;;;;;-145.69;100.00;72037.22;5051471;28;20619;-77
2022/02/03 10:41:35;;;;;;;4.37;2.80;;;;;;;-145.69;100.00;71999.41;5071178;28;20290;-77
2022/02/03 10:47:10;;;;;;;9.70;5.07;;;;;;;-145.69;95.75;71967.56;5072547;28;20201;-78
2022/02/03 10:50:15;;;;;;;4.60;3.03;;;;;;;-145.69;97.22;72019.31;5072734;28;20198;-77
2022/02/03 10:53:02;;;;;;;4.20;2.70;;;;;;;-145.69;96.66;71959.59;5072479;28;20226;-77
2022/02/03 10:56:03;;;;;;;1.90;1.20;;;;;;;-145.69;97.86;71959.59;5072519;28;20267;-77
2022/02/03 10:59:05;;;;;;;1.50;1.00;;;;;;;-145.69;100.00;71999.41;5072408;28;20249;-77
2022/02/03 11:02:07;;;;;;;1.20;1.10;;;;;;;-145.69;100.00;72047.16;5072262;28;20194;-78
2022/02/03 11:05:03;;;;;;;1.77;1.00;;;;;;;-145.69;100.00;71991.44;5072404;28;20226;-78
2022/02/03 11:07:35;;;;;;;1.70;1.20;;;;;;;-145.69;100.00;71963.56;5072183;28;20202;-78
2022/02/03 11:10:04;;;;;;;1.80;1.03;;;;;;;-145.69;99.15;71895.91;5074921;28;20234;-78
2022/02/03 11:12:38;;;;;;;1.67;1.30;;;;;;;-145.69;89.99;71858.09;5075918;28;20753;-77
2022/02/03 11:15:10;;;;;;;2.67;1.30;;;;;;;-145.69;94.44;71883.97;5076191;28;20286;-78
2022/02/03 11:17:38;;;;;;;2.37;1.30;;;;;;;-145.69;94.44;71868.06;5075814;28;20207;-77
2022/02/03 11:20:07;;;;;;;3.47;2.10;;;;;;;-145.69;95.66;71878.00;5075988;28;20293;-77
2022/02/03 11:22:46;;;;;;;3.73;1.90;;;;;;;-145.69;95.51;71852.13;5075609;28;20317;-77
2022/02/03 11:25:20;;;;;;;2.60;1.70;;;;;;;-145.69;90.99;71832.22;5075994;28;20213;-78
2022/02/03 11:28:11;;;;;;;2.73;1.47;;;;;;;-145.69;92.21;71794.41;5075712;28;20578;-78
2022/02/03 11:33:49;;;;;;;2.03;1.10;;;;;;;-145.69;86.41;71816.31;5075812;28;20277;-78
2022/02/03 11:36:39;;;;;;;3.33;2.10;;;;;;;-145.69;95.18;71812.31;5075103;28;20199;-78
2022/02/03 11:39:35;;;;;;;1.67;1.38;;;;;;;-145.69;95.00;71770.53;5075606;28;20287;-78
2022/02/03 11:42:38;;;;;;;1.33;0.95;;;;;;;-145.69;99.49;71808.34;5075796;28;20289;-78
2022/02/03 11:45:32;;;;;;;1.77;0.75;;;;;;;-145.69;96.66;71782.47;5075544;28;20229;-78
2022/02/03 11:48:23;;;;;;;1.38;1.15;;;;;;;-145.69;97.26;71788.44;5075588;28;20260;-78
2022/02/03 11:51:21;;;;;;;2.33;1.33;;;;;;;-145.69;96.09;71764.56;5075501;28;20199;-78
2022/02/03 11:59:56;;;;;;;1.27;1.10;;;;;;;-145.69;95.96;71794.41;5075213;28;20197;-78
2022/02/03 12:02:50;;;;;;;2.33;1.60;;;;;;;-145.69;96.67;71772.53;5075357;28;20214;-78
2022/02/03 12:17:17;;;;;;;1.83;1.10;;;;;;;-145.69;94.68;71798.41;5067080;28;20564;-78
2022/02/03 12:20:08;;;;;;;1.53;0.90;;;;;;;-145.69;91.25;71790.44;5090248;28;20198;-77
2022/02/03 12:25:41;;;;;;;1.20;0.80;;;;;;;-145.69;95.83;71792.44;5084615;28;20202;-78
2022/02/03 12:39:13;;;;;;;1.10;1.00;;;;;;;-145.69;86.18;71625.25;5085492;28;20209;-78
2022/02/03 12:41:59;;;;;;;10.65;6.57;;;;;;;-145.69;80.81;71613.31;5069491;28;20214;-78
2022/02/03 12:44:27;;;;;;;1.90;1.30;;;;;;;-145.69;84.19;71704.88;5069709;28;20226;-77
2022/02/03 12:47:05;;;;;;;4.10;2.30;;;;;;;-145.69;85.99;71708.84;5069486;28;20226;-78
2022/02/03 12:49:32;;;;;;;1.10;1.00;;;;;;;-145.69;88.95;71730.72;5069402;28;20657;-78
2022/02/03 12:51:59;;;;;;;1.33;1.20;;;;;;;-145.69;86.66;71736.72;5069220;28;20195;-78
2022/02/03 12:54:28;;;;;;;1.57;0.80;;;;;;;-145.69;86.00;71722.78;5069648;28;20203;-78
2022/02/03 12:57:04;;;;;;;1.90;0.80;;;;;;;-145.69;86.63;71724.75;5078251;28;20225;-79
2022/02/03 12:59:32;;;;;;;1.85;1.17;;;;;;;-145.69;89.16;71692.94;5089752;28;20297;-76
2022/02/03 13:01:58;;;;;;;2.27;1.27;;;;;;;-145.69;87.14;71694.91;5089451;28;20297;-78
2022/02/03 13:04:28;;;;;;;1.10;0.97;;;;;;;-145.69;86.36;71669.03;5089418;28;20205;-76
2022/02/03 13:07:05;;;;;;;2.75;1.20;;;;;;;-145.69;89.13;71677.00;5089262;28;20636;-77
2022/02/03 13:09:44;;;;;;;1.13;0.90;;;;;;;-145.69;89.12;71706.84;5089502;28;20676;-78
2022/02/03 13:12:19;;;;;;;1.20;0.90;;;;;;;-145.69;87.04;71696.91;5089263;28;20202;-78
2022/02/03 13:14:53;;;;;;;1.83;1.00;;;;;;;-145.69;87.35;71673.03;5089065;28;20579;-77
2022/02/03 13:17:23;;;;;;;1.47;1.10;;;;;;;-145.69;86.82;71671.03;5088030;28;20217;-77
2022/02/03 13:19:57;;;;;;;1.00;0.90;;;;;;;-145.69;90.81;71639.19;5075463;28;20244;-76
2022/02/03 13:22:32;;;;;;;2.07;1.00;;;;;;;-145.69;92.30;71611.34;5075250;28;20191;-76
2022/02/03 13:25:08;;;;;;;1.05;0.90;;;;;;;-145.69;92.39;71657.09;5075487;28;20733;-79
2022/02/03 13:27:44;;;;;;;1.43;1.20;;;;;;;-145.69;95.32;71730.72;5075242;28;20908;-79
2022/02/03 13:30:43;;;;;;;2.03;1.40;;;;;;;-145.69;94.71;71744.66;5075571;28;20203;-78
2022/02/03 13:33:15;;;;;;;1.60;1.30;;;;;;;-145.69;92.84;71704.88;5074889;28;20592;-78
2022/02/03 13:36:02;;;;;;;2.40;1.17;;;;;;;-145.69;94.38;71677.00;5075221;28;20207;-78
2022/02/03 13:38:41;;;;;;;3.47;2.10;;;;;;;-145.69;94.28;71677.00;5075106;28;20201;-79
2022/02/03 13:41:13;;;;;;;0.97;0.87;;;;;;;-145.69;91.71;71694.91;5074923;28;20213;-78
2022/02/03 13:43:47;;;;;;;3.83;2.08;;;;;;;-145.69;91.98;71684.97;5075221;28;20230;-78
2022/02/03 13:46:26;;;;;;;1.00;0.85;;;;;;;-145.69;95.03;71696.91;5074606;28;20195;-78
2022/02/03 13:48:57;;;;;;;2.07;1.20;;;;;;;-145.69;96.71;71708.84;5075265;28;20203;-78
2022/02/03 13:51:25;;;;;;;2.13;1.10;;;;;;;-145.69;96.69;71732.72;5074757;28;20657;-78
2022/02/03 13:54:02;;;;;;;1.50;1.27;;;;;;;-145.69;96.73;71756.59;5075121;28;20199;-78
2022/02/03 14:11:40;;;;;;;1.50;0.97;;;;;;;-145.69;97.51;71694.91;5054648;28;20291;-78
2022/02/03 14:14:28;;;;;;;5.57;2.57;;;;;;;-145.69;97.45;71710.84;5054385;28;20199;-78
2022/02/03 14:20:24;;;;;;;1.83;1.10;;;;;;;-145.69;99.50;71724.75;5074092;28;20324;-78
2022/02/03 14:23:24;;;;;;;2.20;1.00;;;;;;;-145.69;99.83;71740.69;5074416;28;20256;-78
2022/02/03 14:28:37;;;;;;;3.00;1.20;;;;;;;-145.69;100.00;71760.59;5074230;28;20230;-78
2022/02/03 14:31:08;;;;;;;2.60;1.13;;;;;;;-145.69;100.00;71768.53;5073291;28;20293;-78
2022/02/03 14:33:39;;;;;;;1.50;0.97;;;;;;;-145.69;100.00;71776.50;5074318;28;20211;-78
2022/02/03 14:36:12;;;;;;;2.07;1.10;;;;;;;-145.69;100.00;71782.47;5074018;28;20659;-77
2022/02/03 14:38:48;;;;;;;2.03;1.30;;;;;;;-145.69;100.00;71796.41;5074058;28;20191;-78
2022/02/03 14:41:23;;;;;;;1.60;1.10;;;;;;;-145.69;100.00;71784.47;5074196;28;20202;-78
2022/02/03 14:43:52;;;;;;;1.60;0.83;;;;;;;-145.69;100.00;71748.66;5074016;28;20194;-78
2022/02/03 14:46:20;;;;;;;1.53;1.00;;;;;;;-145.69;100.00;71758.59;5073799;28;20252;-78
2022/02/03 14:48:51;;;;;;;1.30;0.90;;;;;;;-145.69;100.00;71730.72;5064257;28;20199;-78
2022/02/03 14:51:24;;;;;;;1.57;1.10;;;;;;;-145.69;100.00;71754.63;5054138;28;20753;-78
2022/02/03 14:54:20;;;;;;;3.87;0.70;;;;;;;-145.69;100.00;71786.47;5053954;28;20239;-78
2022/02/03 14:59:30;;;;;;;3.57;0.90;;;;;;;-145.69;100.00;71788.44;5067789;28;20553;-78
2022/02/03 15:01:58;;;;;;;2.43;1.17;;;;;;;-145.69;100.00;71798.41;5073658;28;20211;-78
2022/02/03 15:04:29;;;;;;;1.73;1.27;;;;;;;-145.69;100.00;71796.41;5073497;28;20210;-78
2022/02/03 15:07:00;;;;;;;1.10;0.90;;;;;;;-145.69;100.00;71812.31;5073230;28;20233;-78
2022/02/03 15:09:49;;;;;;;2.77;1.53;;;;;;;-145.69;100.00;71842.19;5073440;28;20217;-78
2022/02/03 15:12:27;;;;;;;2.70;1.20;;;;;;;-145.69;100.00;71860.09;5073540;28;20205;-78
2022/02/03 15:14:59;;;;;;;3.43;1.93;;;;;;;-145.69;100.00;71860.09;5073505;28;20198;-78
2022/02/03 15:17:31;;;;;;;3.13;1.50;;;;;;;-145.69;100.00;71866.06;5073134;28;20853;-78
2022/02/03 15:20:00;;;;;;;2.87;1.40;;;;;;;-145.69;100.00;71880.00;5073004;28;20206;-78
2022/02/03 15:22:30;;;;;;;1.73;1.27;;;;;;;-145.69;100.00;71895.91;5073296;28;20206;-78
2022/02/03 15:25:02;;;;;;;1.60;1.00;;;;;;;-145.69;100.00;71897.91;5073497;28;20289;-78
2022/02/03 15:27:34;;;;;;;1.53;1.10;;;;;;;-145.69;100.00;71917.81;5073203;28;20222;-77
2022/02/03 15:30:03;;;;;;;1.93;1.23;;;;;;;-145.69;100.00;71943.69;5073262;28;20195;-78
2022/02/03 15:32:38;;;;;;;5.53;2.60;;;;;;;-145.69;100.00;71987.47;5073199;28;20665;-77
2022/02/03 15:35:08;;;;;;;46.00;18.87;;;;;;;-145.69;100.00;71997.41;5073495;28;20574;-78
2022/02/03 15:37:35;;;;;;;20.37;8.07;;;;;;;-145.69;100.00;72003.38;5073226;28;20278;-77
2022/02/03 15:40:05;;;;;;;4.97;2.20;;;;;;;-145.69;100.00;72011.34;5073276;28;20203;-78
2022/02/03 15:42:50;;;;;;;2.33;1.50;;;;;;;-145.69;100.00;72027.25;5072970;28;20209;-78
2022/02/03 15:45:17;;;;;;;2.77;1.50;;;;;;;-145.69;100.00;72035.22;5073009;28;20531;-78
2022/02/03 15:47:50;;;;;;;2.67;1.30;;;;;;;-145.69;100.00;72063.09;5073088;28;20257;-78
2022/02/03 15:50:52;;;;;;;3.77;1.60;;;;;;;-145.69;100.00;72067.06;5073009;28;20198;-78
2022/02/03 16:02:20;;;;;;;8.13;3.37;;;;;;;-145.69;100.00;72116.81;5072984;28;20715;-78
2022/02/03 16:18:45;;;;;;;2.93;1.43;;;;;;;-145.69;100.00;72182.50;5072857;28;20248;-77
2022/02/03 16:21:21;;;;;;;2.17;1.33;;;;;;;-145.69;100.00;72186.47;5072817;28;20203;-78
2022/02/03 16:51:42;;;;;;;3.10;2.03;;;;;;;-145.69;100.00;72278.03;5072355;28;20194;-77
2022/02/03 16:54:17;;;;;;;6.93;3.20;;;;;;;-145.69;100.00;72280.03;5073818;28;20496;-77
2022/02/03 16:56:50;;;;;;;6.43;2.87;;;;;;;-145.69;100.00;72286.00;5067194;28;20223;-78
2022/02/03 16:59:17;;;;;;;3.97;2.13;;;;;;;-145.69;100.00;72297.94;5056162;28;20210;-78
2022/02/03 17:01:45;;;;;;;4.20;2.50;;;;;;;-145.69;100.00;72305.91;5071785;28;20230;-78
2022/02/03 17:04:17;;;;;;;5.43;2.20;;;;;;;-145.69;100.00;72309.88;5075866;28;20206;-77
2022/02/03 17:06:44;;;;;;;3.27;2.03;;;;;;;-145.69;100.00;72305.91;5076001;28;20270;-78
2022/02/03 17:09:11;;;;;;;3.17;2.20;;;;;;;-145.69;100.00;72313.84;5075822;28;20226;-77
2022/02/03 17:11:37;;;;;;;3.83;2.13;;;;;;;-145.69;100.00;72335.75;5075916;28;20298;-77
2022/02/03 17:14:06;;;;;;;4.10;2.37;;;;;;;-145.69;100.00;72317.84;5075849;28;20206;-78
2022/02/03 17:16:33;;;;;;;3.17;2.00;;;;;;;-145.69;100.00;72335.75;5075743;28;20207;-78
2022/02/03 17:18:59;;;;;;;3.33;1.33;;;;;;;-145.69;100.00;72329.78;5075322;28;20203;-77
2022/02/03 17:21:28;;;;;;;2.40;1.20;;;;;;;-145.69;100.00;72331.78;5075741;28;20203;-77
2022/02/03 17:23:55;;;;;;;3.27;1.53;;;;;;;-145.69;100.00;72317.84;5075659;28;20202;-77